Latest Weather Observations for Frankston

IDV60801

Issued at 8:05 pm EST Thursday 2 October 2014 (issued every 30 minutes, with the page automatically refreshed every 10 minutes)

About weather observations | Map of weather stations | Latest weather observations for VIC | Other Formats
Station Details ID: 086371 Name: FRANKSTON AWS Lat: -38.15 Lon: 145.12 Height: 6.0 m
Data from the previous 72 hours. | See also: Recent months at Frankston
Date/Time
EST
Temp
°C
App
Temp
°C
Dew
Point
Rel
Hum
%
Delta-T
°C
Wind Press
QNH
hPa
Press
MSL
hPa
Rain
since 9 am
mm
Dir
 
Spd
km/h
Gust
km/h
Spd
kts
Gust
kts
02/08:00pm 12.7 10.8 9.2 79 1.8 SW 9 15 5 8 - - -
02/07:30pm 13.0 10.3 9.1 77 2.0 SW 13 19 7 10 - - -
02/07:00pm 13.3 9.4 8.8 74 2.3 SW 19 24 10 13 - - -
02/06:30pm 13.5 11.3 9.2 75 2.2 SW 11 20 6 11 - - -
02/06:00pm 13.7 10.1 9.7 77 2.1 SW 19 26 10 14 - - -
02/05:30pm 14.0 10.1 9.4 74 2.4 WSW 20 26 11 14 - - -
02/05:00pm 13.9 9.7 9.7 76 2.2 WSW 22 28 12 15 - - -
02/04:30pm 13.8 8.8 9.6 76 2.2 WSW 26 32 14 17 - - -
02/04:00pm 14.3 10.1 9.7 74 2.4 WSW 22 28 12 15 - - -
02/03:30pm 13.9 9.4 9.9 77 2.1 WSW 24 30 13 16 - - -
02/03:00pm 13.7 9.6 10.1 79 1.9 WSW 22 30 12 16 - - -
02/02:30pm 13.9 10.6 9.7 76 2.2 WSW 17 19 9 10 - - -
02/02:00pm 13.9 11.3 9.3 74 2.3 WSW 13 15 7 8 - - -
02/01:30pm 13.7 11.1 9.2 74 2.3 WSW 13 15 7 8 - - -
02/01:00pm 13.9 10.6 9.5 75 2.3 WNW 17 20 9 11 - - -
02/12:30pm 13.6 9.9 9.5 76 2.1 WNW 19 24 10 13 - - -
02/12:00pm 13.5 8.8 9.4 76 2.1 WNW 24 28 13 15 - - -
02/11:30am 13.2 8.0 8.9 75 2.2 WNW 26 32 14 17 - - -
02/11:00am 12.9 7.4 9.0 77 2.0 WNW 28 32 15 17 - - -
02/10:30am 12.7 7.6 9.2 79 1.8 WNW 26 32 14 17 - - -
02/10:00am 12.4 7.2 8.9 79 1.8 WNW 26 32 14 17 - - -
02/09:30am 12.1 6.2 8.9 81 1.6 WNW 30 35 16 19 - - -
02/09:00am 11.8 5.9 9.0 83 1.4 WNW 30 35 16 19 - - -
02/08:30am 11.8 5.5 9.0 83 1.4 WNW 32 37 17 20 - - -
02/08:00am 11.7 5.8 9.1 84 1.3 WNW 30 37 16 20 - - -
02/07:30am 11.9 6.1 9.3 84 1.3 WNW 30 35 16 19 - - -
02/07:00am 11.6 5.3 9.0 84 1.3 WNW 32 37 17 20 - - -
02/06:30am 11.7 5.4 9.1 84 1.3 WNW 32 37 17 20 - - -
02/06:00am 11.7 5.9 9.3 85 1.2 WNW 30 37 16 20 - - -
02/05:30am 11.3 5.4 9.0 86 1.1 WNW 30 35 16 19 - - -
02/05:00am 11.5 5.1 8.5 82 1.5 NW 32 37 17 20 - - -
02/04:30am 11.8 5.7 8.3 79 1.7 WNW 30 35 16 19 - - -
02/04:00am 11.7 5.2 8.2 79 1.7 WNW 32 41 17 22 - - -
02/03:30am 11.9 6.2 8.4 79 1.7 WNW 28 35 15 19 - - -
02/03:00am 11.9 5.7 8.0 77 1.9 WNW 30 35 16 19 - - -
02/02:30am 11.9 6.5 8.0 77 1.9 WNW 26 32 14 17 - - -
02/02:00am 12.0 7.0 7.9 76 2.0 WNW 24 28 13 15 - - -
02/01:30am 12.0 6.1 7.7 75 2.1 W 28 32 15 17 - - -
02/01:00am 12.1 6.7 7.8 75 2.1 WNW 26 30 14 16 - - -
02/12:30am 12.0 6.9 7.7 75 2.1 WNW 24 30 13 16 - - -
02/12:00am 12.4 6.9 7.5 72 2.4 W 26 32 14 17 - - -
 
Date/Time
EST
Temp
°C
App
Temp
°C
Dew
Point
Rel
Hum
%
Delta-T
°C
Wind Press
QNH
hPa
Press
MSL
hPa
Rain
since 9 am
mm
Dir
 
Spd
km/h
Gust
km/h
Spd
kts
Gust
kts
01/11:30pm 12.3 7.1 7.4 72 2.4 W 24 30 13 16 - - -
01/11:00pm 12.0 7.0 6.3 68 2.7 W 22 26 12 14 - - -
01/10:30pm 12.3 6.6 6.6 68 2.7 W 26 30 14 16 - - -
01/10:00pm 12.3 6.9 6.4 67 2.8 W 24 30 13 16 - - -
01/09:30pm 12.7 7.1 7.0 68 2.7 W 26 32 14 17 - - -
01/09:00pm 12.9 6.8 6.7 66 3.0 W 28 32 15 17 - - -
01/08:30pm 12.9 7.2 6.5 65 3.1 W 26 32 14 17 - - -
01/08:00pm 12.9 7.3 7.1 68 2.8 W 26 32 14 17 - - -
01/07:30pm 13.3 6.9 6.9 65 3.1 WSW 30 33 16 18 - - -
01/07:00pm 12.9 8.1 5.8 62 3.3 WSW 20 26 11 14 - - -
01/06:30pm 13.0 8.0 6.4 64 3.1 WSW 22 30 12 16 - - -
01/06:00pm 12.8 7.8 6.4 65 3.0 WSW 22 32 12 17 - - -
01/05:30pm 12.8 7.7 5.9 63 3.2 WSW 22 30 12 16 - - -
01/05:00pm 12.8 7.1 4.8 58 3.7 WSW 24 30 13 16 - - -
01/04:30pm 12.6 7.3 5.1 60 3.5 WSW 22 28 12 15 - - -
01/04:00pm 12.4 6.5 6.0 65 3.0 WSW 26 35 14 19 - - -
01/03:30pm 12.6 5.6 4.1 56 3.8 WSW 30 33 16 18 - - -
01/03:00pm 12.4 6.3 6.5 67 2.8 WSW 28 33 15 18 - - -
01/02:30pm 12.5 5.6 4.5 58 3.6 WSW 30 35 16 19 - - -
01/02:00pm 12.3 6.2 5.0 61 3.4 WSW 26 30 14 16 - - -
01/01:30pm 12.4 6.8 5.6 63 3.2 WSW 24 32 13 17 - - -
01/01:00pm 12.1 5.5 6.2 67 2.8 WSW 30 35 16 19 - - -
01/12:30pm 11.9 7.2 6.0 67 2.8 W 20 26 11 14 - - -
01/12:00pm 11.6 4.2 4.1 60 3.4 WSW 32 37 17 20 - - -
01/11:30am 11.9 6.0 6.0 67 2.8 W 26 33 14 18 - - -
01/11:00am 11.3 7.2 6.2 71 2.4 WNW 17 24 9 13 - - -
01/10:30am 11.1 6.0 5.8 70 2.5 W 22 30 12 16 - - -
01/10:00am 10.8 6.1 6.2 73 2.1 W 20 24 11 13 - - -
01/09:30am 10.5 4.0 6.6 77 1.8 W 30 46 16 25 - - -
01/09:26am 10.7 4.5 6.1 73 2.1 W 28 44 15 24 - - -
01/09:00am 10.7 6.0 5.3 69 2.5 W 19 24 10 13 - - -
01/08:30am 10.2 4.3 5.8 74 2.0 W 26 32 14 17 - - -
01/08:00am 10.3 5.6 6.1 75 1.9 W 20 33 11 18 - - -
01/07:30am 9.0 3.8 5.6 79 1.5 W 22 32 12 17 - - -
01/07:00am 9.5 3.9 5.3 75 1.9 WSW 24 28 13 15 - - -
01/06:30am 9.7 3.7 5.5 75 1.9 W 26 33 14 18 - - -
01/06:00am 9.6 2.8 5.0 73 2.1 W 30 37 16 20 - - -
01/05:30am 9.5 5.7 5.7 77 1.7 SW 15 32 8 17 - - -
01/05:00am 9.7 2.5 5.9 77 1.7 W 33 44 18 24 - - -
01/04:30am 10.2 3.1 5.6 73 2.1 W 32 41 17 22 - - -
01/04:00am 9.8 2.6 5.2 73 2.1 W 32 39 17 21 - - -
01/03:30am 9.6 1.5 5.2 74 2.0 W 37 46 20 25 - - -
01/03:00am 9.6 1.6 5.6 76 1.8 W 37 44 20 24 - - -
01/02:30am 9.6 1.5 5.2 74 2.0 W 37 44 20 24 - - -
01/02:00am 9.3 1.5 5.1 75 1.9 WNW 35 41 19 22 - - -
01/01:30am 9.7 1.5 4.7 71 2.2 W 37 46 20 25 - - -
01/01:00am 9.5 0.6 4.9 73 2.1 W 41 50 22 27 - - -
01/12:44am 8.8 -1.1 5.0 77 1.7 W 46 65 25 35 - - -
01/12:30am 9.9 1.4 5.3 73 2.1 W 39 48 21 26 - - -
01/12:00am 9.9 0.6 5.1 72 2.2 W 43 50 23 27 - - -
 
Date/Time
EST
Temp
°C
App
Temp
°C
Dew
Point
Rel
Hum
%
Delta-T
°C
Wind Press
QNH
hPa
Press
MSL
hPa
Rain
since 9 am
mm
Dir
 
Spd
km/h
Gust
km/h
Spd
kts
Gust
kts
30/11:30pm 9.9 0.7 5.5 74 2.0 W 43 48 23 26 - - -
30/11:00pm 10.0 0.8 5.4 73 2.1 W 43 57 23 31 - - -
30/10:50pm 10.2 1.0 5.4 72 2.2 WNW 43 48 23 26 - - -
30/10:30pm 10.5 1.1 5.3 70 2.4 WSW 44 61 24 33 - - -
30/10:21pm 9.0 -2.5 4.6 74 1.9 WSW 54 61 29 33 - - -
30/10:00pm 11.4 3.1 6.1 70 2.5 WNW 39 50 21 27 - - -
30/09:30pm 10.9 3.7 6.1 72 2.2 W 33 43 18 23 - - -
30/09:00pm 10.7 3.7 5.9 72 2.2 WNW 32 39 17 21 - - -
30/08:30pm 11.0 2.9 5.1 67 2.7 W 37 46 20 25 - - -
30/08:00pm 10.7 0.5 5.0 68 2.6 W 48 70 26 38 - - -
30/07:51pm 11.0 0.3 4.7 65 2.8 W 50 70 27 38 - - -
30/07:30pm 11.4 2.6 5.7 68 2.6 W 41 52 22 28 - - -
30/07:00pm 11.9 2.7 5.3 64 3.0 W 43 50 23 27 - - -
30/06:30pm 12.1 3.0 5.7 65 3.0 W 43 52 23 28 - - -
30/06:00pm 11.6 1.0 5.3 65 2.9 W 50 72 27 39 - - -
30/05:51pm 12.5 4.4 6.8 68 2.7 W 39 59 21 32 - - -
30/05:30pm 12.4 4.7 7.1 70 2.6 WNW 37 46 20 25 - - -
30/05:00pm 12.3 3.1 6.4 67 2.8 W 44 54 24 29 - - -
30/04:30pm 11.3 0.8 5.6 68 2.6 W 50 59 27 32 - - -
30/04:25pm 11.5 1.2 6.4 71 2.4 W 50 59 27 32 - - -
30/04:00pm 11.8 -1.4 10.2 90 0.8 W 70 89 38 48 - - -
30/03:51pm 12.4 -0.3 10.0 85 1.2 W 67 89 36 48 - - -
30/03:30pm 12.8 0.8 9.8 82 1.5 W 63 76 34 41 - - -
30/03:02pm 14.2 3.5 12.9 92 0.7 W 61 80 33 43 - - -
30/03:00pm 14.2 2.8 12.9 92 0.7 W 65 82 35 44 - - -
30/02:59pm 14.2 2.7 12.8 91 0.8 W 65 89 35 48 - - -
30/02:47pm 16.1 0.5 10.6 70 2.9 WNW 83 109 45 59 - - -
30/02:45pm 19.2 10.8 8.8 51 5.4 NW 43 80 23 43 - - -
30/02:33pm 19.6 11.8 8.3 48 5.9 NW 39 61 21 33 - - -
30/02:30pm 19.3 12.3 8.3 49 5.7 NW 35 48 19 26 - - -
30/02:00pm 18.3 13.0 9.9 58 4.5 NNW 28 37 15 20 - - -
30/01:30pm 18.4 12.2 9.5 56 4.7 NNW 32 39 17 21 - - -
30/01:00pm 17.8 11.9 10.4 62 3.9 NNW 32 41 17 22 - - -
30/12:42pm 18.8 11.9 9.0 53 5.1 N 35 54 19 29 - - -
30/12:30pm 18.0 12.1 10.6 62 4.0 N 32 43 17 23 - - -
30/12:00pm 18.1 11.9 10.0 59 4.3 N 33 43 18 23 - - -
30/11:30am 17.9 11.7 9.5 58 4.4 N 32 39 17 21 - - -
30/11:00am 17.7 11.5 9.3 58 4.4 N 32 39 17 21 - - -
30/10:30am 18.2 11.8 8.7 54 4.9 N 32 41 17 22 - - -
30/10:00am 17.0 12.6 10.4 65 3.5 N 24 30 13 16 - - -
30/09:30am 16.6 12.1 10.2 66 3.4 N 24 30 13 16 - - -
30/09:00am 16.2 11.6 9.8 66 3.3 N 24 30 13 16 - - -
30/08:30am 15.7 11.1 9.8 68 3.1 N 24 30 13 16 - - -
30/08:00am 15.2 10.6 9.6 69 2.9 N 24 30 13 16 - - -
30/07:30am 14.7 9.8 9.9 73 2.5 N 26 30 14 16 - - -
30/07:00am 14.6 10.9 10.2 75 2.3 NNW 20 26 11 14 - - -
30/06:30am 14.7 10.7 10.5 76 2.2 NNW 22 28 12 15 - - -
30/06:00am 14.6 11.5 10.2 75 2.3 N 17 22 9 12 - - -
30/05:30am 14.7 12.4 10.3 75 2.3 NNW 13 17 7 9 - - -
30/05:00am 14.7 12.4 10.3 75 2.3 NNW 13 15 7 8 - - -
30/04:30am 14.6 12.8 11.0 79 1.9 NNW 11 13 6 7 - - -
30/04:00am 14.6 12.7 11.9 84 1.5 NW 13 17 7 9 - - -
30/03:30am 14.4 13.3 12.1 86 1.2 NW 9 11 5 6 - - -
30/03:00am 14.6 13.4 11.7 83 1.6 WNW 9 11 5 6 - - -
30/02:30am 15.1 13.3 10.9 76 2.2 WNW 11 13 6 7 - - -
30/02:00am 15.0 12.9 11.0 77 2.1 WNW 13 17 7 9 - - -
30/01:30am 16.2 13.2 10.5 69 3.0 NNW 17 20 9 11 - - -
30/01:00am 16.0 14.2 10.7 71 2.8 NW 11 17 6 9 - - -
30/12:30am 16.0 12.7 11.0 72 2.7 W 19 26 10 14 - - -
30/12:00am 16.4 13.9 10.9 70 2.9 N 15 19 8 10 - - -
 
Date/Time
EST
Temp
°C
App
Temp
°C
Dew
Point
Rel
Hum
%
Delta-T
°C
Wind Press
QNH
hPa
Press
MSL
hPa
Rain
since 9 am
mm
Dir
 
Spd
km/h
Gust
km/h
Spd
kts
Gust
kts
29/11:30pm 16.5 13.2 10.8 69 3.0 N 19 24 10 13 - - -
29/11:00pm 16.6 13.3 10.9 69 3.1 N 19 24 10 13 - - -
29/10:30pm 16.8 13.9 11.1 69 3.1 N 17 20 9 11 - - -
29/10:00pm 17.0 13.8 11.1 68 3.2 N 19 22 10 12 - - -
29/09:30pm 17.1 14.2 10.9 67 3.3 N 17 20 9 11 - - -
29/09:00pm 17.4 15.2 10.8 65 3.5 N 13 15 7 8 - - -
29/08:30pm 17.9 15.4 11.0 64 3.7 N 15 17 8 9 - - -

Other Formats:

Comma delimited format used in spreadsheet applications
http://www.bom.gov.au/fwo/IDV60801/IDV60801.94871.axf

JavaScript Object Notation format (JSON) in row-major order
http://www.bom.gov.au/fwo/IDV60801/IDV60801.94871.json